Time;durP1;ratioP1;P1;durP2;ratioP2;P2;SDS_P1;SDS_P2;PMS_P1;PMS_P2;Temp;Humidity;BMP_temperature;BMP_pressure;BME280_temperature;BME280_humidity;BME280_pressure;Samples;Min_cycle;Max_cycle;Signal;HPM_P1;HPM_P2
2022/06/21 10:01:04;;;;;;;3.63;1.60;;;19.50;99.90;;;;;;5087758;27;20553;-68
2022/06/21 10:03:39;;;;;;;2.17;1.65;;;19.50;99.90;;;;;;5086490;28;20206;-69
2022/06/21 10:06:23;;;;;;;3.65;1.80;;;19.70;99.90;;;;;;5089247;28;20632;-70
2022/06/21 10:09:16;;;;;;;4.50;2.47;;;19.70;99.90;;;;;;5085178;28;20291;-79
2022/06/21 10:24:21;;;;;;;1.83;1.50;;;18.60;99.90;;;;;;5109247;27;20947;-63
2022/06/21 10:27:26;;;;;;;4.83;1.93;;;18.70;99.90;;;;;;5108815;28;20286;-62
2022/06/21 10:30:30;;;;;;;3.27;1.83;;;18.80;99.90;;;;;;5108507;28;20208;-62
2022/06/21 10:33:12;;;;;;;4.20;1.50;;;18.90;99.90;;;;;;5109231;28;20211;-63
2022/06/21 10:36:00;;;;;;;2.42;1.50;;;19.20;99.90;;;;;;5109023;28;20237;-72
2022/06/21 10:38:40;;;;;;;3.53;1.80;;;19.30;99.90;;;;;;5108971;28;20285;-65
2022/06/21 10:41:26;;;;;;;3.63;1.70;;;19.30;99.90;;;;;;5108618;28;20213;-71
2022/06/21 10:44:16;;;;;;;2.35;1.65;;;19.40;99.90;;;;;;5108768;28;20202;-73
2022/06/21 10:46:44;;;;;;;2.80;1.80;;;19.50;99.90;;;;;;5108399;28;20228;-65
2022/06/21 10:49:51;;;;;;;3.35;1.75;;;19.50;99.90;;;;;;5109585;28;20202;-83
2022/06/21 10:52:56;;;;;;;4.03;1.73;;;19.80;99.90;;;;;;5110483;28;20202;-82
2022/06/21 10:55:43;;;;;;;5.72;2.00;;;20.10;99.90;;;;;;5104475;28;20202;-67
2022/06/21 10:58:27;;;;;;;6.93;2.78;;;20.30;99.90;;;;;;5108936;28;20284;-65
2022/06/21 11:01:21;;;;;;;3.05;1.40;;;20.00;99.90;;;;;;5108847;28;20202;-68
2022/06/21 11:04:15;;;;;;;2.85;1.67;;;19.80;99.90;;;;;;5104900;28;20287;-66
2022/06/21 11:06:49;;;;;;;4.47;2.15;;;19.70;99.90;;;;;;5078265;28;20229;-76
2022/06/21 11:09:21;;;;;;;3.08;1.90;;;19.80;99.90;;;;;;5089677;28;20225;-77
2022/06/21 11:11:56;;;;;;;4.63;1.55;;;19.70;99.90;;;;;;5089319;28;20684;-76
2022/06/21 11:14:38;;;;;;;2.28;1.80;;;19.50;99.90;;;;;;5089168;28;20212;-77
2022/06/21 11:17:13;;;;;;;4.00;1.95;;;19.60;99.90;;;;;;5089256;28;20227;-63
2022/06/21 11:19:49;;;;;;;4.07;1.40;;;19.90;99.90;;;;;;5089197;28;20198;-63
2022/06/21 11:22:38;;;;;;;4.50;1.67;;;20.00;99.90;;;;;;5089049;28;20223;-65
2022/06/21 11:25:21;;;;;;;2.40;1.60;;;19.60;99.90;;;;;;5089001;28;20751;-63
2022/06/21 11:27:58;;;;;;;2.55;1.45;;;19.50;99.90;;;;;;5089152;28;20223;-63
2022/06/21 11:30:42;;;;;;;3.67;1.20;;;19.60;99.90;;;;;;5088546;28;20209;-64
2022/06/21 11:33:15;;;;;;;2.80;1.40;;;19.70;99.90;;;;;;5086897;28;20211;-75
2022/06/21 11:35:49;;;;;;;2.47;1.42;;;19.70;99.90;;;;;;5075315;28;20199;-63
2022/06/21 11:38:36;;;;;;;4.85;1.90;;;19.70;99.90;;;;;;5075587;28;20684;-63
2022/06/21 11:41:07;;;;;;;2.60;1.83;;;19.60;99.90;;;;;;5075323;28;20608;-65
2022/06/21 11:43:50;;;;;;;4.60;1.60;;;19.70;99.90;;;;;;5074965;28;20261;-63
2022/06/21 11:46:30;;;;;;;5.53;2.00;;;20.00;99.90;;;;;;5074988;28;20229;-69
2022/06/21 11:49:31;;;;;;;6.13;1.60;;;19.80;99.90;;;;;;5074880;28;20214;-63
2022/06/21 11:52:28;;;;;;;2.78;1.70;;;19.60;99.90;;;;;;5075257;28;20199;-65
2022/06/21 11:55:04;;;;;;;3.30;1.73;;;19.50;99.90;;;;;;5075216;28;20661;-65
2022/06/21 11:57:39;;;;;;;3.00;1.63;;;19.50;99.90;;;;;;5074966;28;20317;-63
2022/06/21 12:00:11;;;;;;;3.33;1.73;;;19.40;99.90;;;;;;5075087;28;20202;-74
2022/06/21 12:03:38;;;;;;;3.50;2.10;;;19.40;99.90;;;;;;5110478;27;20547;-62
2022/06/21 12:06:10;;;;;;;4.95;1.90;;;19.50;99.90;;;;;;5100752;28;20688;-63
2022/06/21 12:08:44;;;;;;;3.97;2.38;;;19.60;99.90;;;;;;5089157;28;20636;-72
2022/06/21 12:11:15;;;;;;;4.55;2.30;;;19.60;99.90;;;;;;5088784;28;20198;-63
2022/06/21 12:13:54;;;;;;;4.20;1.73;;;19.70;99.90;;;;;;5088394;28;20612;-66
2022/06/21 12:16:35;;;;;;;3.60;1.92;;;20.00;99.90;;;;;;5088459;28;20222;-62
2022/06/21 12:19:08;;;;;;;3.40;1.92;;;20.30;99.90;;;;;;5088603;28;20664;-64
2022/06/21 12:21:40;;;;;;;3.05;1.60;;;20.10;99.90;;;;;;5088138;28;20584;-64
2022/06/21 12:24:12;;;;;;;4.60;1.98;;;19.90;99.90;;;;;;5088781;28;20572;-64
2022/06/21 12:26:41;;;;;;;4.20;1.77;;;20.00;99.90;;;;;;5088162;28;20229;-63
2022/06/21 12:29:14;;;;;;;4.32;2.00;;;20.00;99.90;;;;;;5087941;28;20213;-64
2022/06/21 12:31:50;;;;;;;3.05;1.90;;;20.00;99.90;;;;;;5088384;28;20210;-64
2022/06/21 12:34:27;;;;;;;1.90;1.52;;;19.90;99.90;;;;;;5087949;28;20202;-63
2022/06/21 12:37:00;;;;;;;4.00;1.60;;;19.70;99.90;;;;;;5088191;28;20234;-62
2022/06/21 12:39:33;;;;;;;3.75;1.90;;;19.80;99.90;;;;;;5088412;28;20213;-64
2022/06/21 12:42:19;;;;;;;3.80;1.90;;;20.20;99.90;;;;;;5087708;28;20234;-63
2022/06/21 12:44:59;;;;;;;2.70;1.92;;;20.20;99.90;;;;;;5087546;28;20194;-63
2022/06/21 12:47:50;;;;;;;4.00;1.80;;;20.30;99.90;;;;;;5088011;28;20222;-63
2022/06/21 12:50:37;;;;;;;3.10;1.65;;;20.50;99.90;;;;;;5087516;28;20210;-62
2022/06/21 12:53:23;;;;;;;2.45;1.80;;;20.40;99.90;;;;;;5087908;28;20225;-65
2022/06/21 12:55:58;;;;;;;3.20;1.73;;;20.20;99.90;;;;;;5087777;28;20229;-64
2022/06/21 12:58:42;;;;;;;2.10;1.48;;;20.20;99.90;;;;;;5087519;28;20220;-62
2022/06/21 13:01:19;;;;;;;8.32;2.20;;;20.10;99.90;;;;;;5087852;28;20631;-63
2022/06/21 13:04:05;;;;;;;2.97;1.67;;;20.20;99.90;;;;;;5087372;28;20596;-63
2022/06/21 13:06:49;;;;;;;4.93;1.98;;;20.10;99.90;;;;;;5087442;28;20232;-63
2022/06/21 13:09:45;;;;;;;4.10;1.73;;;20.20;99.90;;;;;;5087917;28;20564;-74
2022/06/21 13:12:25;;;;;;;3.28;1.85;;;20.40;99.90;;;;;;5088774;28;20209;-62
2022/06/21 13:15:15;;;;;;;3.50;1.80;;;20.30;99.90;;;;;;5075201;28;20207;-63
2022/06/21 13:18:03;;;;;;;3.65;2.03;;;20.40;99.90;;;;;;5075417;28;20310;-63
2022/06/21 13:20:35;;;;;;;2.10;1.60;;;20.50;99.90;;;;;;5071367;28;20214;-63
2022/06/21 13:23:11;;;;;;;2.28;1.40;;;20.80;99.90;;;;;;5075054;28;20237;-63
2022/06/21 13:25:52;;;;;;;1.52;1.40;;;20.90;99.90;;;;;;5075061;28;20297;-63
2022/06/21 13:28:54;;;;;;;3.30;1.52;;;20.80;99.90;;;;;;5075438;28;20282;-67
2022/06/21 13:31:28;;;;;;;2.33;1.52;;;20.80;99.90;;;;;;5063514;28;20209;-63
2022/06/21 13:34:04;;;;;;;4.25;1.65;;;20.70;99.90;;;;;;5074676;28;20245;-63
2022/06/21 13:36:40;;;;;;;3.03;1.73;;;20.90;99.90;;;;;;5074987;28;20270;-63
2022/06/21 13:39:21;;;;;;;5.25;1.95;;;21.10;99.90;;;;;;5074998;28;20215;-65
2022/06/21 13:44:45;;;;;;;6.35;1.60;;;20.80;99.90;;;;;;5057250;28;20200;-63
2022/06/21 13:47:16;;;;;;;5.28;1.63;;;20.80;99.90;;;;;;5074906;28;20246;-63
2022/06/21 13:49:47;;;;;;;2.25;1.65;;;20.70;99.90;;;;;;5074312;28;20233;-63
2022/06/21 13:52:21;;;;;;;2.30;1.40;;;20.70;99.90;;;;;;5074739;28;20533;-63
2022/06/21 13:54:54;;;;;;;2.63;1.20;;;20.70;99.90;;;;;;5074873;28;20299;-64
2022/06/21 13:57:39;;;;;;;4.10;1.60;;;20.60;99.90;;;;;;5074198;28;20720;-64
2022/06/21 14:00:08;;;;;;;2.83;1.50;;;20.50;99.90;;;;;;5074565;28;20206;-62
2022/06/21 14:02:41;;;;;;;4.22;1.42;;;20.60;99.90;;;;;;5074321;28;20229;-64
2022/06/21 14:05:25;;;;;;;2.97;1.45;;;20.60;99.90;;;;;;5074159;28;20229;-66
2022/06/21 14:07:57;;;;;;;2.72;1.30;;;20.70;99.90;;;;;;5074773;28;20231;-64
2022/06/21 14:10:32;;;;;;;3.05;1.40;;;21.00;99.90;;;;;;5075267;28;20203;-63
2022/06/21 14:13:05;;;;;;;3.03;1.30;;;21.10;99.90;;;;;;5074265;28;20202;-63
2022/06/21 14:15:40;;;;;;;4.22;1.63;;;21.30;99.90;;;;;;5074065;28;20208;-64
2022/06/21 14:18:13;;;;;;;1.95;1.35;;;21.20;99.90;;;;;;5074144;28;20217;-64
2022/06/21 14:20:45;;;;;;;4.85;1.52;;;21.20;99.90;;;;;;5074434;28;20211;-63
2022/06/21 14:23:20;;;;;;;1.58;1.20;;;21.10;99.90;;;;;;5074223;28;20712;-63
2022/06/21 14:25:53;;;;;;;2.33;1.20;;;21.20;99.90;;;;;;5072835;28;20709;-63
2022/06/21 14:28:27;;;;;;;1.98;1.30;;;21.40;99.90;;;;;;5074234;28;20203;-63
2022/06/21 14:31:02;;;;;;;1.73;1.40;;;21.50;99.90;;;;;;5074263;28;20229;-63
2022/06/21 14:33:34;;;;;;;2.20;1.20;;;21.70;99.90;;;;;;5074095;28;20206;-63
2022/06/21 14:36:09;;;;;;;3.55;1.60;;;21.70;99.90;;;;;;5074054;28;20310;-63
2022/06/21 14:38:44;;;;;;;2.65;1.20;;;22.00;99.90;;;;;;5074084;28;20202;-65
2022/06/21 14:41:17;;;;;;;1.42;1.00;;;22.10;99.90;;;;;;5074328;28;20205;-64
2022/06/21 14:43:49;;;;;;;2.90;1.70;;;22.20;99.90;;;;;;5074051;28;20231;-63
2022/06/21 14:46:24;;;;;;;2.63;1.40;;;22.20;99.90;;;;;;5073896;28;20233;-64
2022/06/21 14:48:57;;;;;;;3.53;1.70;;;21.80;99.90;;;;;;5074089;28;20209;-64
2022/06/21 14:51:33;;;;;;;2.85;1.60;;;21.70;99.90;;;;;;5073850;28;20569;-66
2022/06/21 14:54:22;;;;;;;5.38;2.08;;;21.70;99.90;;;;;;5073926;28;20207;-63
2022/06/21 14:57:07;;;;;;;2.65;1.30;;;21.60;99.40;;;;;;5072366;28;20223;-63
2022/06/21 14:59:51;;;;;;;3.58;1.70;;;21.50;99.90;;;;;;5073878;28;20214;-64
2022/06/21 15:02:36;;;;;;;2.38;1.50;;;21.10;99.90;;;;;;5073430;28;20230;-67
2022/06/21 15:05:12;;;;;;;2.88;1.90;;;21.20;99.90;;;;;;5073707;28;20203;-63
2022/06/21 15:07:45;;;;;;;3.80;1.40;;;21.10;99.90;;;;;;5073431;28;20218;-64
2022/06/21 15:10:20;;;;;;;4.03;2.03;;;21.10;99.90;;;;;;5073223;28;20214;-63
2022/06/21 15:12:53;;;;;;;5.57;1.52;;;21.30;99.90;;;;;;5073029;28;20207;-64
2022/06/21 15:15:23;;;;;;;3.20;1.55;;;21.40;99.90;;;;;;5073180;28;20668;-63
2022/06/21 15:17:54;;;;;;;3.78;1.50;;;21.40;99.90;;;;;;5073336;28;20223;-63
2022/06/21 15:20:29;;;;;;;3.42;1.60;;;21.50;99.90;;;;;;5073150;28;20204;-63
2022/06/21 15:23:01;;;;;;;3.90;1.70;;;21.40;99.90;;;;;;5073220;28;20241;-63
2022/06/21 15:25:47;;;;;;;4.25;1.52;;;21.40;99.60;;;;;;5072964;28;20573;-63
2022/06/21 15:28:21;;;;;;;1.63;1.33;;;21.00;99.90;;;;;;5073113;28;20229;-63
2022/06/21 15:30:56;;;;;;;4.30;1.50;;;20.80;99.90;;;;;;5073311;28;20203;-63
2022/06/21 15:33:29;;;;;;;4.53;1.80;;;20.70;99.90;;;;;;5072833;28;20570;-63
2022/06/21 15:36:24;;;;;;;3.28;1.63;;;20.90;99.90;;;;;;5073043;28;20226;-63
2022/06/21 15:38:59;;;;;;;4.68;1.70;;;21.20;99.90;;;;;;5069666;28;20623;-63
2022/06/21 15:41:34;;;;;;;2.05;1.55;;;21.30;99.90;;;;;;5073403;28;20209;-63
2022/06/21 15:44:26;;;;;;;1.85;1.60;;;21.20;99.90;;;;;;5073276;28;20589;-63
2022/06/21 15:52:28;;;;;;;3.25;1.45;;;21.10;99.90;;;;;;5073039;28;20206;-66
2022/06/21 15:55:00;;;;;;;2.45;1.48;;;21.00;99.90;;;;;;5072898;28;20210;-71
2022/06/21 15:57:38;;;;;;;3.22;1.60;;;21.20;99.90;;;;;;5072306;28;20769;-70
2022/06/21 16:00:17;;;;;;;4.00;1.52;;;21.40;99.90;;;;;;5072752;28;20654;-75
2022/06/21 16:02:54;;;;;;;5.03;1.85;;;21.50;99.90;;;;;;5072645;28;20233;-71
2022/06/21 16:05:30;;;;;;;3.15;1.80;;;21.40;99.40;;;;;;5072935;28;20232;-71
2022/06/21 16:08:00;;;;;;;5.85;1.80;;;21.30;99.90;;;;;;5072647;28;20209;-76
2022/06/21 16:10:30;;;;;;;2.97;1.58;;;21.50;99.80;;;;;;5072648;28;20294;-77
2022/06/21 16:13:02;;;;;;;2.13;1.30;;;21.60;99.70;;;;;;5072824;28;20214;-68
2022/06/21 16:15:34;;;;;;;3.22;1.60;;;21.60;99.80;;;;;;5072694;28;20569;-77
2022/06/21 16:18:05;;;;;;;3.38;1.80;;;21.60;99.70;;;;;;5072984;28;20231;-78
2022/06/21 16:20:38;;;;;;;2.72;1.48;;;21.40;99.90;;;;;;5072381;28;20199;-68
2022/06/21 16:23:26;;;;;;;2.78;1.42;;;21.30;99.80;;;;;;5072992;28;20237;-72
2022/06/21 16:25:57;;;;;;;3.25;1.83;;;21.10;99.90;;;;;;5072423;28;20309;-69
2022/06/21 16:28:30;;;;;;;1.80;1.40;;;21.20;99.90;;;;;;5072397;28;20207;-73
2022/06/21 16:33:54;;;;;;;2.63;1.40;;;21.50;99.90;;;;;;5072627;28;20210;-80
2022/06/21 16:36:31;;;;;;;5.43;1.70;;;21.60;99.60;;;;;;5072586;28;20228;-76
2022/06/21 16:39:02;;;;;;;2.33;1.13;;;21.50;99.50;;;;;;5072288;28;20203;-71
2022/06/21 16:44:25;;;;;;;1.80;1.55;;;21.50;99.90;;;;;;5072329;28;20242;-75
2022/06/21 16:46:57;;;;;;;4.43;1.52;;;21.40;99.90;;;;;;5072635;28;20222;-76
2022/06/21 16:49:29;;;;;;;1.55;1.08;;;21.30;99.90;;;;;;5075224;28;20204;-78
2022/06/21 16:51:56;;;;;;;3.55;1.23;;;21.20;99.90;;;;;;5076115;28;20207;-68
2022/06/21 16:54:35;;;;;;;1.85;1.20;;;21.30;99.90;;;;;;5076304;28;20214;-70
2022/06/21 16:57:03;;;;;;;2.08;1.40;;;21.30;99.90;;;;;;5075964;28;20229;-80
2022/06/21 16:59:43;;;;;;;3.08;1.10;;;21.30;99.90;;;;;;5076074;28;20234;-75
2022/06/21 17:02:18;;;;;;;2.95;1.20;;;21.10;99.90;;;;;;5075789;28;20253;-80
2022/06/21 17:05:02;;;;;;;2.42;1.40;;;21.10;99.90;;;;;;5076108;28;20248;-77
2022/06/21 17:07:32;;;;;;;3.78;1.38;;;21.10;99.90;;;;;;5075727;28;20230;-80
2022/06/21 17:10:03;;;;;;;1.77;1.35;;;21.30;99.90;;;;;;5075836;28;20204;-74
2022/06/21 17:12:37;;;;;;;3.03;1.20;;;21.40;99.90;;;;;;5075709;28;20225;-77
2022/06/21 17:15:06;;;;;;;1.75;1.42;;;21.30;99.90;;;;;;5075923;28;20203;-73
2022/06/21 17:18:04;;;;;;;2.40;1.50;;;21.30;99.90;;;;;;5075722;28;20314;-71
2022/06/21 17:20:42;;;;;;;3.47;1.60;;;21.20;99.90;;;;;;5075490;28;20217;-72
2022/06/21 17:23:20;;;;;;;3.40;1.33;;;21.10;99.90;;;;;;5075264;28;20231;-81
2022/06/21 17:25:57;;;;;;;1.92;1.70;;;20.90;99.90;;;;;;5075415;28;20253;-80
2022/06/21 17:28:30;;;;;;;2.25;1.38;;;21.10;99.90;;;;;;5075401;28;20203;-73
2022/06/21 17:31:03;;;;;;;2.22;1.20;;;21.30;99.90;;;;;;5075434;28;20642;-80
2022/06/21 17:33:38;;;;;;;2.42;1.40;;;21.40;99.90;;;;;;5075049;28;20209;-78
2022/06/21 17:36:12;;;;;;;3.20;1.65;;;21.30;99.90;;;;;;5074919;28;20233;-80
2022/06/21 17:38:46;;;;;;;2.53;1.45;;;21.00;99.90;;;;;;5075030;28;20205;-78
2022/06/21 17:41:32;;;;;;;2.15;1.33;;;20.80;99.90;;;;;;5075002;28;20312;-79
2022/06/21 17:44:03;;;;;;;6.18;1.75;;;20.80;99.90;;;;;;5075158;28;20271;-77
2022/06/21 17:46:36;;;;;;;2.63;1.42;;;21.10;99.90;;;;;;5075180;28;20315;-79
2022/06/21 17:49:24;;;;;;;3.03;1.40;;;21.10;99.90;;;;;;5075031;28;20211;-76
2022/06/21 17:51:54;;;;;;;2.30;1.45;;;21.00;99.90;;;;;;5075017;28;20207;-80
2022/06/21 17:54:28;;;;;;;2.50;1.27;;;20.80;99.90;;;;;;5074951;28;20199;-80
2022/06/21 17:56:59;;;;;;;2.53;1.50;;;20.90;99.90;;;;;;5074748;28;20567;-77
2022/06/21 17:59:29;;;;;;;3.10;1.48;;;20.80;99.90;;;;;;5074798;28;20565;-81
2022/06/21 18:02:03;;;;;;;1.90;1.20;;;20.80;99.90;;;;;;5074701;28;20305;-79
2022/06/21 18:04:40;;;;;;;2.13;1.30;;;20.70;99.90;;;;;;5074450;28;20245;-80
2022/06/21 18:07:14;;;;;;;3.25;1.30;;;20.80;99.90;;;;;;5074469;28;20314;-76
2022/06/21 18:09:54;;;;;;;2.20;1.10;;;20.80;99.90;;;;;;5079648;28;20298;-80
2022/06/21 18:12:30;;;;;;;2.40;1.30;;;20.90;99.90;;;;;;5074590;28;20210;-80
2022/06/21 18:14:57;;;;;;;3.88;1.55;;;20.50;99.90;;;;;;5074474;28;20206;-71
2022/06/21 18:17:47;;;;;;;4.40;1.60;;;20.40;99.90;;;;;;5072867;28;20227;-79
2022/06/21 18:20:32;;;;;;;2.40;1.15;;;20.50;99.90;;;;;;5074609;28;20207;-81
2022/06/21 18:23:06;;;;;;;2.08;1.20;;;20.40;99.90;;;;;;5073936;28;20203;-77
2022/06/21 18:25:50;;;;;;;3.63;1.20;;;20.40;99.90;;;;;;5073681;28;20203;-82
2022/06/21 18:28:30;;;;;;;2.25;1.25;;;20.40;99.90;;;;;;5074410;28;20203;-79
2022/06/21 18:31:05;;;;;;;3.83;1.48;;;20.40;99.90;;;;;;5073883;28;20214;-76
2022/06/21 18:33:33;;;;;;;2.63;1.20;;;20.40;99.90;;;;;;5073976;28;20207;-79
2022/06/21 18:36:07;;;;;;;1.52;1.15;;;20.40;99.90;;;;;;5073342;28;20229;-72
2022/06/21 18:38:52;;;;;;;3.25;1.20;;;20.40;99.90;;;;;;5074393;28;20233;-79
2022/06/21 18:41:26;;;;;;;3.63;1.45;;;20.20;99.90;;;;;;5073799;28;20203;-77
2022/06/21 18:44:03;;;;;;;4.45;1.25;;;20.10;99.90;;;;;;5073627;28;20325;-79
2022/06/21 18:46:40;;;;;;;3.70;1.25;;;20.00;99.90;;;;;;5074096;28;20309;-78
2022/06/21 18:49:18;;;;;;;4.55;1.25;;;20.20;99.90;;;;;;5074233;28;20667;-79
2022/06/21 18:51:54;;;;;;;3.58;1.30;;;20.10;99.90;;;;;;5074011;28;20207;-76
2022/06/21 18:54:36;;;;;;;2.88;1.30;;;20.30;99.90;;;;;;5073903;28;20202;-79
2022/06/21 18:57:14;;;;;;;2.85;1.27;;;20.40;99.90;;;;;;5073775;28;20553;-79
2022/06/21 18:59:54;;;;;;;1.95;1.30;;;20.30;99.90;;;;;;5073788;28;20577;-78
2022/06/21 19:02:26;;;;;;;2.45;1.33;;;20.40;99.90;;;;;;5073743;28;20210;-78
2022/06/21 19:11:00;;;;;;;2.65;1.20;;;19.90;99.90;;;;;;5073026;28;20202;-75
2022/06/21 19:13:31;;;;;;;1.73;1.02;;;19.80;99.90;;;;;;5073470;28;20207;-63
2022/06/21 19:16:07;;;;;;;2.15;1.45;;;19.80;99.90;;;;;;5073734;28;20223;-67
2022/06/21 19:19:24;;;;;;;4.32;1.50;;;19.60;99.90;;;;;;5073789;28;20203;-62
2022/06/21 19:22:04;;;;;;;3.53;1.75;;;19.60;99.90;;;;;;5072045;28;20217;-63
2022/06/21 19:24:53;;;;;;;3.97;1.52;;;19.80;99.90;;;;;;5073469;28;20235;-68
2022/06/21 19:27:27;;;;;;;2.28;1.42;;;19.60;99.90;;;;;;5073196;28;20226;-63
2022/06/21 19:30:19;;;;;;;2.40;1.38;;;19.60;99.90;;;;;;5073460;28;20199;-62
2022/06/21 19:33:19;;;;;;;4.38;1.95;;;19.70;99.90;;;;;;5073415;28;20203;-62
2022/06/21 19:36:06;;;;;;;2.10;1.42;;;19.60;99.90;;;;;;5073086;28;20209;-63
2022/06/21 19:38:53;;;;;;;2.85;1.10;;;19.60;99.90;;;;;;5073162;28;20234;-68
2022/06/21 19:41:32;;;;;;;4.10;1.60;;;19.30;99.90;;;;;;5072769;28;20612;-63
2022/06/21 19:44:15;;;;;;;1.77;1.30;;;19.30;99.90;;;;;;5073291;28;20325;-66
2022/06/21 19:46:45;;;;;;;5.45;1.30;;;19.20;99.90;;;;;;5072951;28;20558;-63
2022/06/21 19:49:25;;;;;;;3.90;1.40;;;19.10;99.90;;;;;;5073466;28;20249;-62
2022/06/21 19:52:12;;;;;;;3.53;1.52;;;19.20;99.90;;;;;;5073153;28;20198;-62
2022/06/21 19:54:42;;;;;;;4.15;1.92;;;19.00;99.90;;;;;;5072977;28;20265;-62
2022/06/21 19:57:39;;;;;;;4.82;1.60;;;18.90;99.90;;;;;;5072670;28;20234;-62
2022/06/21 20:00:26;;;;;;;5.32;2.03;;;18.80;99.90;;;;;;5073256;28;20200;-63
2022/06/21 20:02:55;;;;;;;5.55;1.77;;;18.70;99.90;;;;;;5072743;28;20213;-63
2022/06/21 20:05:26;;;;;;;2.35;1.33;;;18.80;99.90;;;;;;5072874;28;20262;-63
2022/06/21 20:08:08;;;;;;;2.63;1.60;;;18.60;99.90;;;;;;5073136;28;20218;-63
2022/06/21 20:10:46;;;;;;;4.07;1.75;;;18.70;99.90;;;;;;5073492;28;20207;-62
2022/06/21 20:13:34;;;;;;;2.22;1.33;;;18.70;99.90;;;;;;5072752;28;20209;-63
2022/06/21 20:16:20;;;;;;;2.42;1.50;;;18.40;99.90;;;;;;5072662;28;20227;-63
2022/06/21 20:18:57;;;;;;;2.05;1.25;;;18.30;99.90;;;;;;5072855;28;20303;-62
2022/06/21 20:21:40;;;;;;;4.30;1.20;;;18.30;99.90;;;;;;5072694;28;20664;-63
2022/06/21 20:24:19;;;;;;;5.10;1.67;;;18.30;99.90;;;;;;5074747;28;20234;-63
2022/06/21 20:27:01;;;;;;;1.95;1.40;;;18.10;99.90;;;;;;5076569;28;20581;-62
2022/06/21 20:29:36;;;;;;;4.05;1.30;;;18.10;99.90;;;;;;5076660;28;20211;-63
2022/06/21 20:32:07;;;;;;;2.60;1.43;;;18.10;99.90;;;;;;5076480;28;20687;-63
2022/06/21 20:34:38;;;;;;;3.37;1.60;;;17.90;99.90;;;;;;5076382;28;20731;-62
2022/06/21 20:37:11;;;;;;;1.50;1.40;;;17.80;99.90;;;;;;5076585;28;20230;-64
2022/06/21 20:39:42;;;;;;;2.57;1.20;;;17.80;99.90;;;;;;5076356;28;20673;-63
2022/06/21 20:42:16;;;;;;;3.97;1.20;;;17.70;99.90;;;;;;5076707;28;20239;-78
2022/06/21 20:44:54;;;;;;;4.23;1.50;;;17.60;99.90;;;;;;5076136;28;20226;-63
2022/06/21 20:47:56;;;;;;;2.17;1.53;;;17.60;99.90;;;;;;5075564;28;20230;-63
